KRIW

Riverton Regional Airport

Riverton, Wyoming, USA
METAR KRIW 181953Z AUTO 12005KT 10SM CLR 03/M06 A2999 RMK AO2 SLP186 T00281056
Observed Flight Rules
Jan-18 @ 19:53 UTC (24 minutes ago) Visual Flight Rules
Wind Visibility Clouds
120° at 5 knots 10 miles
  • Clear skies
Temperatures Readings
Current 3°C / 37°F
Dewpoint -6°C / 21°F
Humidity 52%
Altimeter 29.99" Hg
Pressure 1018.6 hPa
Elevation 1697
METAR KRIW 181953Z AUTO 12005KT 10SM CLR 03/M06 A2999 RMK AO2 SLP186 T00281056
Observed Flight Rules
Jan-18 @ 19:53 UTC
(24 minutes ago)
VFR
Wind Visibility
120° at 5 knots 10 miles
Clouds
  • Clear skies
Temperature Dewpoint
3°C / 37°F -6°C / 21°F
Humidity Altimeter Pressure
52% 29.99" Hg 1018.6 hPa